Time;durP1;ratioP1;P1;durP2;ratioP2;P2;SDS_P1;SDS_P2;PMS_P1;PMS_P2;Temp;Humidity;BMP_temperature;BMP_pressure;BME280_temperature;BME280_humidity;BME280_pressure;Samples;Min_cycle;Max_cycle;Signal;HPM_P1;HPM_P2
2023/06/05 00:00:52;;;;;;;7.38;3.50;;;15.80;27.20;;;;;;5050356;28;20393;-71
2023/06/05 00:03:17;;;;;;;6.97;3.17;;;15.80;28.00;;;;;;5050535;28;20377;-70
2023/06/05 00:05:43;;;;;;;5.93;3.47;;;15.80;28.80;;;;;;5050445;28;20381;-71
2023/06/05 00:08:09;;;;;;;5.43;3.13;;;15.70;29.40;;;;;;5050436;28;20462;-70
2023/06/05 00:10:34;;;;;;;5.03;3.10;;;15.70;30.30;;;;;;5050613;28;20472;-70
2023/06/05 00:13:00;;;;;;;9.00;3.50;;;15.70;31.00;;;;;;5050304;28;20385;-70
2023/06/05 00:15:25;;;;;;;5.88;3.40;;;15.70;31.80;;;;;;5050364;28;20393;-70
2023/06/05 00:17:51;;;;;;;6.63;3.27;;;15.60;32.30;;;;;;5050415;28;20381;-69
2023/06/05 00:20:17;;;;;;;8.60;4.37;;;15.60;33.00;;;;;;5050686;28;20468;-69
2023/06/05 00:22:47;;;;;;;7.87;3.90;;;15.60;33.70;;;;;;5050212;28;20488;-70
2023/06/05 00:25:12;;;;;;;6.47;3.22;;;15.40;34.90;;;;;;5050225;28;20412;-71
2023/06/05 00:27:40;;;;;;;9.10;3.63;;;15.50;35.70;;;;;;5049168;28;20519;-71
2023/06/05 00:30:10;;;;;;;7.60;3.90;;;15.50;35.90;;;;;;5050218;28;20381;-70
2023/06/05 00:32:36;;;;;;;5.50;3.45;;;15.50;36.60;;;;;;5050068;28;20386;-69
2023/06/05 00:35:02;;;;;;;8.52;3.90;;;15.50;37.20;;;;;;5049940;28;20400;-69
2023/06/05 00:37:27;;;;;;;7.50;4.20;;;15.40;37.80;;;;;;5053568;28;20377;-70
2023/06/05 00:39:53;;;;;;;9.33;4.20;;;15.40;38.50;;;;;;5054095;28;20712;-70
2023/06/05 00:42:18;;;;;;;6.67;3.90;;;15.30;38.80;;;;;;5053869;28;20463;-72
2023/06/05 00:44:44;;;;;;;7.22;4.10;;;15.30;39.30;;;;;;5054127;28;20515;-71
2023/06/05 00:47:10;;;;;;;10.68;4.10;;;15.20;40.10;;;;;;5053832;28;20389;-71
2023/06/05 00:49:36;;;;;;;6.10;3.67;;;15.30;40.80;;;;;;5053959;28;20861;-69
2023/06/05 00:52:02;;;;;;;9.70;3.70;;;15.30;40.90;;;;;;5053824;28;20739;-70
2023/06/05 00:54:29;;;;;;;8.30;3.80;;;15.20;41.30;;;;;;5052309;28;20466;-70
2023/06/05 00:56:55;;;;;;;9.40;3.80;;;15.20;42.00;;;;;;5053776;28;20447;-70
2023/06/05 00:59:21;;;;;;;9.00;3.88;;;15.20;42.50;;;;;;5053639;28;20858;-70
2023/06/05 01:01:47;;;;;;;6.32;3.90;;;15.10;43.20;;;;;;5053502;28;20750;-69
2023/06/05 01:04:13;;;;;;;11.00;3.97;;;15.10;43.50;;;;;;5053458;28;20432;-69
2023/06/05 01:06:40;;;;;;;9.70;4.25;;;15.10;43.50;;;;;;5053566;28;20381;-69
2023/06/05 01:09:08;;;;;;;7.38;4.07;;;15.10;44.00;;;;;;5053599;28;20866;-70
2023/06/05 01:11:52;;;;;;;7.60;3.80;;;15.10;44.30;;;;;;5053349;28;20397;-70
2023/06/05 01:14:47;;;;;;;13.60;4.43;;;15.00;45.40;;;;;;5053339;28;20393;-72
2023/06/05 01:17:13;;;;;;;11.93;4.00;;;15.00;45.60;;;;;;5051880;28;20866;-70
2023/06/05 01:19:39;;;;;;;9.13;4.40;;;15.00;46.00;;;;;;5053585;28;20381;-71
2023/06/05 01:22:08;;;;;;;8.68;4.50;;;14.90;46.50;;;;;;5053197;28;20377;-70
2023/06/05 01:24:35;;;;;;;8.80;3.80;;;14.90;46.80;;;;;;5053017;28;20398;-72
2023/06/05 01:27:15;;;;;;;13.43;4.90;;;14.90;47.40;;;;;;5053200;28;20394;-68
2023/06/05 01:30:02;;;;;;;12.82;5.00;;;14.80;47.70;;;;;;5053057;28;20388;-73
2023/06/05 01:32:53;;;;;;;11.40;4.50;;;14.80;47.70;;;;;;5052838;28;20373;-71
2023/06/05 01:35:21;;;;;;;12.25;4.40;;;14.80;48.00;;;;;;5052960;28;20455;-69
2023/06/05 01:37:48;;;;;;;11.75;4.88;;;14.70;48.30;;;;;;5053025;28;20904;-70
2023/06/05 01:40:16;;;;;;;10.00;4.70;;;14.70;49.30;;;;;;5052820;28;20401;-71
2023/06/05 01:42:43;;;;;;;9.25;4.80;;;14.70;49.80;;;;;;5052740;28;20481;-71
2023/06/05 01:45:11;;;;;;;8.60;4.43;;;14.60;49.60;;;;;;5052837;28;20389;-70
2023/06/05 01:47:38;;;;;;;7.47;4.28;;;14.60;49.60;;;;;;5051256;28;20863;-69
2023/06/05 01:50:08;;;;;;;7.28;4.30;;;14.70;49.50;;;;;;5052559;28;20385;-70
2023/06/05 01:52:35;;;;;;;10.20;4.93;;;14.60;49.60;;;;;;5052462;28;20429;-70
2023/06/05 01:55:01;;;;;;;11.85;5.10;;;14.60;49.60;;;;;;5052404;28;20393;-70
2023/06/05 01:57:28;;;;;;;10.40;4.93;;;14.60;50.10;;;;;;5052747;28;20373;-70
2023/06/05 01:59:54;;;;;;;9.00;4.50;;;14.60;49.90;;;;;;5052329;28;20412;-70
2023/06/05 02:02:21;;;;;;;7.53;4.78;;;14.50;50.90;;;;;;5052263;28;20468;-70
2023/06/05 02:04:47;;;;;;;16.67;5.00;;;14.40;51.20;;;;;;5052484;28;20727;-69
2023/06/05 02:07:14;;;;;;;11.48;4.82;;;14.40;52.40;;;;;;5051100;28;20389;-69
2023/06/05 02:09:41;;;;;;;10.77;4.93;;;14.40;51.70;;;;;;5052239;28;20890;-71
2023/06/05 02:12:07;;;;;;;9.75;4.97;;;14.40;51.80;;;;;;5051972;28;20804;-70
2023/06/05 02:14:35;;;;;;;9.80;5.00;;;14.30;52.80;;;;;;5052095;28;20401;-70
2023/06/05 02:17:07;;;;;;;12.52;5.45;;;14.30;53.10;;;;;;5052213;28;20439;-70
2023/06/05 02:19:33;;;;;;;12.75;4.97;;;14.30;52.90;;;;;;5050913;28;20484;-71
2023/06/05 02:21:59;;;;;;;11.88;4.88;;;14.30;52.50;;;;;;5052191;28;20461;-69
2023/06/05 02:24:27;;;;;;;8.77;5.30;;;14.30;52.20;;;;;;5052018;28;20487;-70
2023/06/05 02:26:53;;;;;;;12.27;5.87;;;14.20;53.30;;;;;;5053641;28;20465;-73
2023/06/05 02:29:18;;;;;;;11.57;5.60;;;14.20;53.50;;;;;;5054332;28;20385;-71
2023/06/05 02:31:44;;;;;;;9.33;5.03;;;14.20;54.30;;;;;;5053312;28;20936;-70
2023/06/05 02:34:10;;;;;;;9.43;5.37;;;14.10;54.00;;;;;;5050282;28;20431;-70
2023/06/05 02:36:36;;;;;;;9.27;5.10;;;14.10;54.40;;;;;;5052094;28;20462;-71
2023/06/05 02:39:04;;;;;;;13.55;5.95;;;14.10;54.60;;;;;;5051633;28;20858;-71
2023/06/05 02:41:30;;;;;;;11.70;5.47;;;14.00;54.80;;;;;;5050215;28;20393;-70
2023/06/05 02:43:56;;;;;;;10.80;6.07;;;14.00;55.20;;;;;;5051631;28;20393;-70
2023/06/05 02:46:22;;;;;;;18.13;5.47;;;14.00;55.50;;;;;;5051478;28;20870;-70
2023/06/05 02:48:48;;;;;;;9.23;6.00;;;14.00;56.10;;;;;;5051480;28;20393;-70
2023/06/05 02:51:13;;;;;;;11.85;5.47;;;13.90;56.40;;;;;;5049862;28;20489;-70
2023/06/05 02:53:39;;;;;;;11.55;6.38;;;13.90;57.20;;;;;;5051454;28;20848;-70
2023/06/05 02:56:05;;;;;;;11.67;6.40;;;13.80;57.00;;;;;;5051088;28;20802;-69
2023/06/05 02:58:33;;;;;;;13.07;6.35;;;13.80;57.00;;;;;;5050758;28;20392;-69
2023/06/05 03:01:01;;;;;;;17.77;6.30;;;13.80;57.40;;;;;;5050982;28;20385;-69
2023/06/05 03:03:29;;;;;;;11.15;5.88;;;13.70;58.00;;;;;;5051485;28;20389;-69
2023/06/05 03:05:56;;;;;;;14.05;6.13;;;13.80;58.10;;;;;;5051109;28;20754;-69
2023/06/05 03:08:21;;;;;;;12.50;6.38;;;13.70;58.30;;;;;;5051111;28;20417;-70
2023/06/05 03:10:47;;;;;;;11.27;6.10;;;13.70;58.70;;;;;;5051125;28;20444;-70
2023/06/05 03:13:13;;;;;;;12.65;6.50;;;13.70;58.80;;;;;;5051062;28;20386;-69
2023/06/05 03:15:39;;;;;;;13.03;7.00;;;13.60;59.00;;;;;;5049951;28;20746;-71
2023/06/05 03:18:05;;;;;;;13.07;6.50;;;13.60;59.30;;;;;;5051107;28;20872;-71
2023/06/05 03:20:30;;;;;;;9.87;5.50;;;13.60;59.60;;;;;;5051181;28;20382;-71
2023/06/05 03:22:56;;;;;;;13.60;5.97;;;13.50;59.50;;;;;;5050748;28;20439;-71
2023/06/05 03:25:22;;;;;;;10.97;7.00;;;13.50;59.60;;;;;;5050850;28;20389;-71
2023/06/05 03:27:49;;;;;;;11.70;6.53;;;13.50;59.80;;;;;;5050832;28;20754;-70
2023/06/05 03:30:18;;;;;;;15.27;6.93;;;13.50;59.60;;;;;;5050744;28;20968;-70
2023/06/05 03:32:44;;;;;;;14.53;6.80;;;13.40;59.90;;;;;;5050599;28;20378;-72
2023/06/05 03:35:10;;;;;;;12.43;6.83;;;13.30;60.70;;;;;;5052179;28;20408;-73
2023/06/05 03:37:35;;;;;;;10.57;6.50;;;13.30;61.40;;;;;;5053302;28;20401;-74
2023/06/05 03:40:01;;;;;;;14.50;7.67;;;13.40;60.80;;;;;;5054262;28;20396;-74
2023/06/05 03:42:27;;;;;;;13.38;7.35;;;13.40;59.80;;;;;;5056847;28;20394;-73
2023/06/05 03:44:52;;;;;;;11.75;6.65;;;13.40;59.40;;;;;;5053173;28;20382;-73
2023/06/05 03:47:20;;;;;;;13.10;6.55;;;13.40;59.60;;;;;;5053535;28;20399;-73
2023/06/05 03:49:47;;;;;;;14.73;6.97;;;13.40;59.10;;;;;;5053197;28;20516;-73
2023/06/05 03:52:14;;;;;;;12.30;6.45;;;13.40;59.10;;;;;;5052521;28;20397;-71
2023/06/05 03:54:40;;;;;;;13.13;6.20;;;13.40;59.00;;;;;;5053915;28;20382;-72
2023/06/05 03:57:09;;;;;;;12.02;6.35;;;13.50;58.70;;;;;;5056020;28;20533;-72
2023/06/05 03:59:35;;;;;;;16.30;6.80;;;13.50;58.40;;;;;;5053235;28;20397;-71
2023/06/05 04:02:02;;;;;;;12.87;7.13;;;13.50;58.60;;;;;;5059467;28;20404;-72
2023/06/05 04:04:27;;;;;;;9.70;6.30;;;13.40;59.00;;;;;;5056924;28;20401;-74
2023/06/05 04:06:56;;;;;;;16.87;6.90;;;13.40;58.80;;;;;;5055281;28;20400;-73
2023/06/05 04:09:22;;;;;;;11.00;7.00;;;13.40;58.40;;;;;;5060178;28;20397;-72
2023/06/05 04:11:49;;;;;;;11.93;6.75;;;13.50;58.30;;;;;;5071456;28;20418;-73
2023/06/05 04:14:15;;;;;;;13.80;6.90;;;13.40;58.00;;;;;;5075344;28;20905;-74
2023/06/05 04:16:43;;;;;;;10.13;6.15;;;13.40;58.00;;;;;;5076501;28;20384;-73
2023/06/05 04:19:10;;;;;;;11.45;6.45;;;13.40;58.50;;;;;;5078511;28;20384;-74
2023/06/05 04:21:37;;;;;;;15.18;7.05;;;13.50;58.20;;;;;;5078016;28;20387;-73
2023/06/05 04:24:08;;;;;;;11.93;6.93;;;13.60;57.10;;;;;;5074676;28;20402;-73
2023/06/05 04:26:34;;;;;;;11.20;7.20;;;13.60;56.60;;;;;;5076027;28;20391;-74
2023/06/05 04:29:02;;;;;;;17.35;6.88;;;13.50;57.10;;;;;;5075313;28;20463;-73
2023/06/05 04:31:30;;;;;;;9.52;6.00;;;13.60;57.60;;;;;;5075212;28;20403;-72
2023/06/05 04:33:56;;;;;;;8.98;6.40;;;13.70;56.00;;;;;;5075011;28;20730;-73
2023/06/05 04:36:22;;;;;;;10.90;6.50;;;13.60;56.40;;;;;;5074106;28;20411;-72
2023/06/05 04:38:47;;;;;;;10.35;6.40;;;13.60;55.60;;;;;;5075971;28;20780;-73
2023/06/05 04:41:13;;;;;;;12.18;7.30;;;13.70;55.70;;;;;;5074738;28;20384;-72
2023/06/05 04:43:40;;;;;;;15.68;7.43;;;13.60;55.40;;;;;;5075293;28;20500;-73
2023/06/05 04:46:05;;;;;;;12.40;7.10;;;13.60;56.20;;;;;;5074930;28;20461;-73
2023/06/05 04:48:31;;;;;;;16.13;7.40;;;13.70;56.20;;;;;;5075063;28;20379;-72
2023/06/05 04:50:57;;;;;;;16.20;6.93;;;13.70;55.10;;;;;;5074685;28;20407;-75
2023/06/05 04:53:23;;;;;;;13.15;7.30;;;13.80;54.50;;;;;;5075647;28;20884;-73
2023/06/05 04:55:49;;;;;;;12.63;6.60;;;13.80;55.00;;;;;;5075364;28;20383;-73
2023/06/05 04:58:15;;;;;;;12.10;6.70;;;13.90;54.20;;;;;;5075108;28;20764;-73
2023/06/05 05:00:44;;;;;;;13.52;6.75;;;14.00;53.30;;;;;;5074975;28;20384;-72
2023/06/05 05:03:13;;;;;;;12.82;6.60;;;14.00;52.70;;;;;;5074007;28;20388;-74
2023/06/05 05:05:39;;;;;;;12.05;6.75;;;14.10;52.00;;;;;;5074043;28;20383;-73
2023/06/05 05:08:05;;;;;;;13.18;7.18;;;14.10;52.10;;;;;;5074000;28;20392;-71
2023/06/05 05:10:31;;;;;;;13.95;7.68;;;14.10;52.40;;;;;;5074556;28;20399;-72
2023/06/05 05:13:00;;;;;;;12.85;6.82;;;14.10;52.50;;;;;;5072687;28;20775;-72
2023/06/05 05:15:26;;;;;;;12.52;7.13;;;14.20;52.80;;;;;;5074257;28;20812;-73
2023/06/05 05:17:52;;;;;;;10.50;7.25;;;14.30;50.20;;;;;;5072973;28;20384;-72
2023/06/05 05:20:19;;;;;;;13.32;7.30;;;14.40;50.20;;;;;;5072721;28;21441;-72
2023/06/05 05:22:45;;;;;;;14.07;7.20;;;14.40;50.20;;;;;;5074259;28;20407;-72
2023/06/05 05:25:10;;;;;;;11.73;7.25;;;14.40;49.70;;;;;;5073842;28;20427;-72
2023/06/05 05:27:36;;;;;;;15.80;7.22;;;14.50;49.40;;;;;;5074603;28;20375;-75
2023/06/05 05:30:02;;;;;;;14.52;7.35;;;14.60;49.30;;;;;;5073600;28;20379;-74
2023/06/05 05:32:28;;;;;;;18.30;7.50;;;14.60;48.50;;;;;;5073853;28;20411;-73
2023/06/05 05:34:53;;;;;;;17.90;7.77;;;14.70;48.70;;;;;;5073941;28;20847;-74
2023/06/05 05:37:19;;;;;;;17.70;8.00;;;14.80;46.80;;;;;;5072592;28;20401;-72
2023/06/05 05:39:45;;;;;;;16.02;8.00;;;14.80;48.00;;;;;;5074115;28;20382;-75
2023/06/05 05:42:10;;;;;;;15.80;7.80;;;14.80;47.30;;;;;;5073684;28;20426;-73
2023/06/05 05:44:36;;;;;;;16.40;7.53;;;14.80;47.10;;;;;;5073806;28;20380;-74
2023/06/05 05:47:02;;;;;;;11.90;7.57;;;15.00;45.90;;;;;;5055533;28;20951;-72
2023/06/05 05:49:27;;;;;;;12.98;7.60;;;15.00;45.70;;;;;;5072424;28;20423;-72
2023/06/05 05:51:53;;;;;;;13.23;7.30;;;15.10;45.50;;;;;;5073652;28;20425;-75
2023/06/05 05:54:19;;;;;;;12.50;7.83;;;15.20;44.90;;;;;;5074444;28;20383;-73
2023/06/05 05:56:47;;;;;;;15.10;8.10;;;15.30;44.30;;;;;;5075101;28;20376;-74
2023/06/05 05:59:12;;;;;;;14.20;7.50;;;15.30;44.80;;;;;;5074906;28;20372;-73
2023/06/05 06:01:38;;;;;;;13.27;7.83;;;15.50;42.50;;;;;;5075421;28;20380;-73
2023/06/05 06:04:04;;;;;;;11.57;7.30;;;15.60;41.90;;;;;;5074848;28;20539;-72
2023/06/05 06:06:29;;;;;;;15.20;7.47;;;15.70;41.10;;;;;;5074557;28;20419;-75
2023/06/05 06:08:55;;;;;;;12.80;6.68;;;15.60;40.90;;;;;;5073748;28;20392;-76
2023/06/05 06:11:20;;;;;;;13.45;7.05;;;15.60;41.80;;;;;;5073146;28;20565;-71
2023/06/05 06:13:46;;;;;;;15.80;7.60;;;15.60;41.00;;;;;;5073859;28;20471;-74
2023/06/05 06:16:11;;;;;;;13.90;6.60;;;15.70;41.40;;;;;;5073962;28;20383;-73
2023/06/05 06:18:37;;;;;;;15.90;7.00;;;15.80;40.00;;;;;;5074483;28;20498;-74
2023/06/05 06:21:04;;;;;;;14.90;7.53;;;15.90;39.60;;;;;;5073721;28;20407;-73
2023/06/05 06:23:30;;;;;;;10.70;6.88;;;16.00;39.40;;;;;;5073774;28;20513;-73
2023/06/05 06:25:56;;;;;;;12.90;7.35;;;16.20;38.60;;;;;;5074197;28;20387;-73
2023/06/05 06:28:21;;;;;;;14.50;7.00;;;16.30;37.60;;;;;;5071686;28;20416;-74
2023/06/05 06:30:47;;;;;;;12.60;7.20;;;16.40;36.90;;;;;;5073633;28;20450;-72
2023/06/05 06:33:13;;;;;;;10.55;5.93;;;16.40;35.90;;;;;;5073270;28;20387;-72
2023/06/05 06:35:39;;;;;;;13.30;6.70;;;16.30;37.00;;;;;;5072589;28;20403;-74
2023/06/05 06:38:06;;;;;;;10.07;6.50;;;16.30;37.30;;;;;;5073316;28;20952;-74
2023/06/05 06:40:31;;;;;;;12.43;7.23;;;16.40;36.00;;;;;;5076106;28;20418;-74
2023/06/05 06:42:57;;;;;;;13.30;6.30;;;16.50;35.60;;;;;;5080388;28;20371;-72
2023/06/05 06:45:22;;;;;;;8.93;5.93;;;16.70;35.40;;;;;;5089892;28;20384;-75
2023/06/05 06:47:48;;;;;;;8.80;5.60;;;16.80;34.90;;;;;;5091191;28;20578;-72
2023/06/05 06:50:14;;;;;;;10.20;6.37;;;17.00;33.70;;;;;;5088132;28;20391;-72
2023/06/05 06:52:40;;;;;;;12.70;5.88;;;17.00;33.80;;;;;;5091795;28;20375;-72
2023/06/05 06:55:06;;;;;;;11.38;6.18;;;17.10;32.20;;;;;;5091551;28;20450;-71
2023/06/05 06:57:32;;;;;;;11.13;5.90;;;17.20;31.40;;;;;;5090847;28;20390;-75
2023/06/05 06:59:57;;;;;;;11.88;5.82;;;17.30;31.80;;;;;;5077217;28;20384;-73
2023/06/05 07:02:25;;;;;;;12.43;5.73;;;17.30;31.00;;;;;;5073659;28;20379;-71
2023/06/05 07:04:53;;;;;;;10.32;5.70;;;17.40;30.80;;;;;;5078460;28;20410;-74
2023/06/05 07:07:21;;;;;;;7.57;5.63;;;17.40;31.10;;;;;;5078633;28;20399;-75
2023/06/05 07:09:48;;;;;;;8.75;5.05;;;17.60;29.90;;;;;;5079942;28;20392;-74
2023/06/05 07:12:15;;;;;;;9.40;5.60;;;17.70;29.80;;;;;;5076872;28;20399;-72
2023/06/05 07:14:41;;;;;;;11.05;5.80;;;17.80;29.90;;;;;;5073129;28;20408;-73
2023/06/05 07:17:06;;;;;;;10.68;5.30;;;17.90;29.00;;;;;;5073391;28;20380;-72
2023/06/05 07:19:33;;;;;;;9.85;4.80;;;18.00;27.70;;;;;;5073001;28;20451;-74
2023/06/05 07:22:00;;;;;;;8.15;5.20;;;17.90;28.00;;;;;;5072122;28;20388;-72
2023/06/05 07:24:28;;;;;;;9.60;4.78;;;17.90;28.50;;;;;;5072454;28;20713;-76
2023/06/05 07:26:55;;;;;;;7.47;4.50;;;18.00;27.70;;;;;;5075225;28;20384;-75
2023/06/05 07:29:24;;;;;;;14.82;5.38;;;18.10;27.80;;;;;;5074280;28;20372;-74
2023/06/05 07:31:57;;;;;;;9.77;5.07;;;18.20;27.20;;;;;;5074090;28;20486;-75
2023/06/05 07:34:24;;;;;;;8.18;5.50;;;18.50;26.90;;;;;;5073277;28;20546;-74
2023/06/05 07:36:51;;;;;;;8.15;5.10;;;18.50;26.10;;;;;;5073754;28;20388;-72
2023/06/05 07:39:17;;;;;;;9.93;5.05;;;18.50;25.10;;;;;;5073257;28;20384;-73
2023/06/05 07:41:43;;;;;;;8.13;4.60;;;18.60;25.90;;;;;;5073804;28;20470;-73
2023/06/05 07:44:10;;;;;;;10.38;5.07;;;18.70;24.80;;;;;;5072662;28;20869;-73
2023/06/05 07:46:36;;;;;;;7.75;4.80;;;18.70;25.20;;;;;;5072597;28;20380;-73
2023/06/05 07:49:01;;;;;;;7.65;4.88;;;18.80;24.70;;;;;;5072766;28;20387;-74
2023/06/05 07:51:27;;;;;;;7.25;4.70;;;18.90;24.10;;;;;;5072522;28;20411;-74
2023/06/05 07:53:53;;;;;;;8.05;4.88;;;18.90;23.50;;;;;;5072472;28;20414;-73
2023/06/05 07:56:18;;;;;;;10.73;4.67;;;19.00;23.80;;;;;;5073353;28;20395;-74
2023/06/05 07:58:44;;;;;;;7.00;4.25;;;19.00;22.70;;;;;;5072810;28;20376;-73
2023/06/05 08:01:12;;;;;;;9.68;4.70;;;19.00;22.30;;;;;;5073059;28;20390;-73
2023/06/05 08:03:38;;;;;;;11.15;4.40;;;19.10;21.90;;;;;;5073824;28;20387;-73
2023/06/05 08:06:03;;;;;;;8.43;4.30;;;19.20;21.40;;;;;;5073333;28;20384;-73
2023/06/05 08:08:29;;;;;;;9.00;4.75;;;19.30;20.90;;;;;;5073121;28;20380;-72
2023/06/05 08:10:55;;;;;;;7.70;4.53;;;19.40;20.70;;;;;;5073140;28;20408;-73
2023/06/05 08:13:21;;;;;;;13.43;4.65;;;19.40;20.20;;;;;;5072617;28;20942;-74
2023/06/05 08:15:47;;;;;;;10.20;5.00;;;19.50;20.40;;;;;;5072186;28;20392;-73
2023/06/05 08:18:14;;;;;;;11.37;5.10;;;19.60;19.60;;;;;;5072718;28;20416;-73
2023/06/05 08:20:40;;;;;;;11.05;4.35;;;19.70;19.20;;;;;;5071636;28;20811;-74
2023/06/05 08:23:05;;;;;;;8.32;3.88;;;19.70;19.30;;;;;;5070824;28;20384;-72
2023/06/05 08:25:31;;;;;;;9.43;4.40;;;19.80;18.80;;;;;;5072588;28;20474;-73
2023/06/05 08:27:56;;;;;;;9.07;3.80;;;19.90;18.50;;;;;;5072660;28;20473;-75
2023/06/05 08:30:22;;;;;;;9.65;4.15;;;19.90;17.80;;;;;;5072041;28;20398;-73
2023/06/05 08:32:47;;;;;;;7.87;4.23;;;20.00;17.90;;;;;;5072062;28;20395;-72
2023/06/05 08:35:13;;;;;;;10.73;4.40;;;20.10;17.80;;;;;;5072032;28;20403;-75
2023/06/05 08:37:40;;;;;;;8.00;3.90;;;20.20;17.50;;;;;;5073252;28;20419;-73
2023/06/05 08:40:08;;;;;;;10.20;4.20;;;20.20;17.00;;;;;;5073211;28;20383;-74
2023/06/05 08:42:33;;;;;;;8.93;3.60;;;20.40;16.10;;;;;;5071987;28;20660;-73
2023/06/05 08:44:59;;;;;;;7.97;3.57;;;20.50;16.20;;;;;;5072608;28;20863;-73
2023/06/05 08:47:29;;;;;;;7.40;3.40;;;20.60;15.70;;;;;;5071989;28;20844;-73
2023/06/05 08:49:55;;;;;;;7.07;3.30;;;20.80;15.90;;;;;;5072233;28;20417;-73
2023/06/05 08:52:23;;;;;;;10.00;4.10;;;20.80;14.70;;;;;;5072079;28;20411;-73
2023/06/05 08:54:49;;;;;;;13.20;3.83;;;20.80;15.00;;;;;;5072292;28;20402;-73
2023/06/05 08:57:15;;;;;;;6.20;3.20;;;20.90;14.80;;;;;;5074131;28;20892;-73
2023/06/05 08:59:41;;;;;;;7.23;3.43;;;20.80;14.90;;;;;;5075792;28;20395;-72
2023/06/05 09:02:09;;;;;;;9.38;3.50;;;21.00;14.40;;;;;;5075373;28;20925;-72
2023/06/05 09:04:35;;;;;;;9.80;3.47;;;21.00;13.70;;;;;;5076010;28;20391;-73
2023/06/05 09:07:01;;;;;;;7.93;3.63;;;21.10;13.40;;;;;;5079136;28;20394;-73
2023/06/05 09:09:27;;;;;;;9.25;3.67;;;21.00;13.30;;;;;;5077462;28;20388;-73
2023/06/05 09:12:03;;;;;;;7.40;4.13;;;21.00;14.60;;;;;;5078696;28;20408;-72
2023/06/05 09:14:28;;;;;;;9.88;3.80;;;21.00;15.80;;;;;;5076969;28;20379;-73
2023/06/05 09:16:54;;;;;;;13.90;4.40;;;21.30;15.80;;;;;;5077243;28;20847;-74
2023/06/05 09:19:25;;;;;;;18.93;5.47;;;21.50;14.80;;;;;;5077821;28;20392;-72
2023/06/05 09:21:54;;;;;;;8.45;4.30;;;21.50;15.10;;;;;;5078023;28;20388;-73
2023/06/05 09:24:24;;;;;;;9.85;4.30;;;21.50;15.00;;;;;;5079280;28;20736;-72
2023/06/05 09:26:56;;;;;;;7.60;4.40;;;21.50;14.20;;;;;;5077131;28;20372;-72
2023/06/05 09:29:23;;;;;;;12.00;3.93;;;21.40;14.10;;;;;;5077800;28;20760;-72
2023/06/05 09:31:50;;;;;;;9.30;4.70;;;21.40;14.30;;;;;;5078043;28;20404;-74
2023/06/05 09:36:50;;;;;;;13.07;4.75;;;21.60;15.00;;;;;;5030317;28;20928;-73
2023/06/05 09:39:16;;;;;;;8.95;4.78;;;21.70;14.00;;;;;;5032832;28;20379;-75
2023/06/05 09:41:44;;;;;;;8.60;5.40;;;21.80;14.20;;;;;;5032697;28;20441;-75
2023/06/05 09:44:10;;;;;;;9.10;3.95;;;21.80;14.70;;;;;;5033049;28;20383;-75
2023/06/05 09:46:59;;;;;;;11.80;4.53;;;21.90;14.60;;;;;;5032988;28;20379;-74
2023/06/05 09:49:45;;;;;;;9.35;4.40;;;22.10;13.80;;;;;;5033048;28;20385;-73
2023/06/05 09:52:12;;;;;;;11.90;4.40;;;22.10;12.50;;;;;;5032936;28;20505;-73
2023/06/05 09:54:41;;;;;;;10.68;3.90;;;22.20;12.90;;;;;;5033016;28;20442;-75
2023/06/05 09:57:11;;;;;;;12.60;4.10;;;22.30;12.10;;;;;;5034197;28;20383;-75
2023/06/05 09:59:50;;;;;;;9.10;3.90;;;22.50;11.70;;;;;;5041146;28;20367;-74
2023/06/05 10:02:17;;;;;;;10.93;4.20;;;22.50;10.50;;;;;;5032983;28;20483;-74
2023/06/05 10:04:56;;;;;;;11.43;4.53;;;22.30;11.40;;;;;;5033218;28;20383;-75
2023/06/05 10:07:23;;;;;;;11.98;4.60;;;22.40;11.90;;;;;;5034292;28;20386;-74
2023/06/05 10:09:49;;;;;;;8.10;4.40;;;22.50;11.70;;;;;;5047798;28;20391;-75
2023/06/05 10:12:16;;;;;;;8.80;4.28;;;22.60;10.40;;;;;;5055189;28;20418;-73
2023/06/05 10:14:42;;;;;;;11.63;4.93;;;22.70;11.10;;;;;;5053949;28;20463;-74
2023/06/05 10:17:10;;;;;;;8.80;4.38;;;22.70;10.60;;;;;;5054179;28;20382;-74
2023/06/05 10:19:36;;;;;;;10.27;4.30;;;22.60;10.00;;;;;;5056099;28;20413;-74
2023/06/05 10:22:02;;;;;;;8.13;4.00;;;22.60;10.00;;;;;;5055212;28;20446;-75
2023/06/05 10:24:35;;;;;;;7.73;3.80;;;22.70;9.30;;;;;;5054209;28;20466;-74
2023/06/05 10:27:18;;;;;;;6.53;3.70;;;22.80;7.90;;;;;;5033064;28;20391;-74
2023/06/05 10:29:49;;;;;;;10.23;4.15;;;22.80;9.00;;;;;;5032768;28;20455;-74
2023/06/05 10:32:24;;;;;;;7.70;4.70;;;22.90;9.30;;;;;;5032322;28;21034;-73
2023/06/05 10:35:14;;;;;;;10.93;4.50;;;23.00;9.10;;;;;;5035420;28;20404;-73
2023/06/05 10:38:01;;;;;;;7.10;3.60;;;23.00;7.30;;;;;;5052494;28;20403;-74
2023/06/05 10:40:27;;;;;;;10.45;3.95;;;23.20;5.10;;;;;;5052828;28;20385;-74
2023/06/05 10:42:53;;;;;;;7.80;4.20;;;23.50;5.00;;;;;;5035043;28;20415;-74
2023/06/05 10:45:45;;;;;;;8.32;3.85;;;23.60;6.70;;;;;;5052851;28;20893;-75
2023/06/05 10:48:11;;;;;;;6.60;3.80;;;23.50;5.50;;;;;;5048406;28;20752;-73
2023/06/05 10:50:37;;;;;;;5.75;3.60;;;23.70;3.30;;;;;;5051918;28;20409;-74
2023/06/05 10:53:02;;;;;;;5.43;3.50;;;23.90;3.10;;;;;;5051487;28;20424;-74
2023/06/05 10:55:42;;;;;;;4.18;3.47;;;24.00;3.00;;;;;;5051800;28;20959;-74
2023/06/05 10:58:10;;;;;;;8.45;4.10;;;24.20;3.30;;;;;;5052041;28;20406;-74
2023/06/05 11:00:38;;;;;;;5.90;3.60;;;24.20;1.90;;;;;;5052999;28;20409;-74
2023/06/05 11:03:05;;;;;;;5.97;3.42;;;24.30;1.00;;;;;;5052344;28;20403;-74
2023/06/05 11:05:31;;;;;;;6.45;3.50;;;24.30;2.20;;;;;;5052226;28;20485;-74
2023/06/05 11:08:17;;;;;;;4.40;3.60;;;24.20;1.30;;;;;;5053852;28;20464;-74
2023/06/05 11:11:05;;;;;;;5.40;3.50;;;24.20;1.40;;;;;;5054920;28;20736;-72
2023/06/05 11:13:54;;;;;;;8.57;3.63;;;24.10;1.00;;;;;;5052996;28;20378;-73
2023/06/05 11:16:46;;;;;;;8.45;3.20;;;23.80;1.00;;;;;;5056469;28;20378;-73
2023/06/05 11:19:21;;;;;;;5.97;3.30;;;24.00;2.00;;;;;;5058691;28;20389;-74
2023/06/05 11:22:02;;;;;;;5.10;3.30;;;24.40;2.60;;;;;;5060509;28;20393;-74
2023/06/05 11:24:28;;;;;;;8.40;3.72;;;24.60;2.10;;;;;;5042608;28;20424;-75
2023/06/05 11:26:53;;;;;;;6.47;3.47;;;24.60;1.90;;;;;;5054671;28;20389;-74
2023/06/05 11:29:20;;;;;;;6.40;3.60;;;24.40;1.90;;;;;;5054326;28;20736;-74
2023/06/05 11:31:45;;;;;;;3.88;3.30;;;24.40;2.00;;;;;;5055599;28;20412;-74
2023/06/05 11:34:16;;;;;;;6.17;3.50;;;24.40;1.50;;;;;;5056042;28;20377;-74
2023/06/05 11:36:41;;;;;;;6.43;3.38;;;24.50;1.50;;;;;;5052749;28;20432;-75
2023/06/05 11:39:07;;;;;;;4.80;3.15;;;24.80;1.00;;;;;;5052042;28;20385;-74
2023/06/05 11:41:34;;;;;;;8.85;3.53;;;24.90;1.00;;;;;;5034088;28;20758;-75
2023/06/05 11:43:59;;;;;;;5.38;3.42;;;25.20;1.10;;;;;;5032594;28;20758;-74
2023/06/05 11:46:41;;;;;;;8.80;3.85;;;25.40;1.00;;;;;;5050319;28;20391;-74
2023/06/05 11:49:22;;;;;;;6.68;3.30;;;25.30;1.00;;;;;;5050200;28;20765;-73
2023/06/05 11:51:48;;;;;;;3.75;3.10;;;25.20;1.00;;;;;;5050182;28;20901;-74
2023/06/05 11:54:24;;;;;;;7.67;3.50;;;25.20;1.10;;;;;;5050991;28;20385;-75
2023/06/05 11:56:52;;;;;;;7.33;3.40;;;25.40;2.00;;;;;;5033064;28;20904;-75
2023/06/05 11:59:18;;;;;;;6.53;3.70;;;25.60;1.00;;;;;;5032751;28;20561;-75
2023/06/05 12:01:44;;;;;;;7.00;3.60;;;25.60;1.00;;;;;;5050900;28;20387;-74
2023/06/05 12:04:10;;;;;;;6.93;3.70;;;25.60;1.00;;;;;;5050703;28;20392;-74
2023/06/05 12:06:47;;;;;;;4.88;3.50;;;25.70;1.00;;;;;;5050579;28;20381;-74
2023/06/05 12:09:15;;;;;;;10.20;3.97;;;26.00;1.00;;;;;;5032420;28;20393;-74
2023/06/05 12:11:44;;;;;;;7.68;3.92;;;26.10;1.00;;;;;;5049945;28;20397;-75
2023/06/05 12:14:11;;;;;;;6.03;3.40;;;26.10;1.00;;;;;;5050957;28;20408;-74
2023/06/05 12:16:39;;;;;;;4.87;3.70;;;26.10;1.00;;;;;;5050609;28;20393;-74
2023/06/05 12:19:17;;;;;;;6.13;3.90;;;26.10;1.90;;;;;;5050258;28;20392;-74
2023/06/05 12:21:45;;;;;;;8.02;4.00;;;26.20;1.00;;;;;;5050275;28;20943;-75
2023/06/05 12:24:11;;;;;;;6.78;3.28;;;26.50;1.00;;;;;;5050451;28;20457;-75
2023/06/05 12:26:58;;;;;;;7.00;3.08;;;26.60;1.00;;;;;;5050702;28;20472;-74
2023/06/05 12:29:24;;;;;;;6.53;3.47;;;26.60;1.00;;;;;;5050264;28;20389;-75
2023/06/05 12:31:52;;;;;;;6.97;3.70;;;26.60;1.00;;;;;;5050934;28;20409;-74
2023/06/05 12:34:18;;;;;;;4.35;3.25;;;26.40;1.00;;;;;;5056625;28;20385;-73
2023/06/05 12:36:45;;;;;;;5.57;3.40;;;26.10;1.00;;;;;;5072309;28;20389;-74
2023/06/05 12:39:15;;;;;;;5.18;3.13;;;26.20;1.00;;;;;;5070729;28;20387;-75
2023/06/05 12:41:41;;;;;;;5.35;4.32;;;26.30;1.00;;;;;;5062288;28;20397;-74
2023/06/05 12:44:08;;;;;;;7.47;3.60;;;26.30;1.00;;;;;;5056160;28;20746;-75
2023/06/05 12:46:34;;;;;;;6.50;3.70;;;25.90;1.00;;;;;;5036993;28;20393;-74
2023/06/05 12:49:01;;;;;;;8.43;3.58;;;25.70;1.00;;;;;;5053998;28;20385;-74